createdAt,value
2018-06-25T09:51:22.056Z,16.70
2018-06-25T09:53:55.214Z,16.60
2018-06-25T10:12:36.777Z,16.60
2018-06-25T10:23:25.862Z,16.90
2018-06-25T10:29:26.260Z,16.90
2018-06-25T10:32:00.918Z,16.90
2018-06-25T10:34:29.498Z,17.00
2018-06-25T10:36:58.574Z,17.00
2018-06-25T10:39:29.571Z,16.90
2018-06-25T10:42:00.678Z,17.00
2018-06-25T10:44:29.767Z,17.20
2018-06-25T10:46:58.805Z,17.30
2018-06-25T10:49:27.643Z,17.20
2018-06-25T10:51:57.382Z,17.10
2018-06-25T10:54:26.263Z,17.10
2018-06-25T10:59:24.652Z,16.90
2018-06-25T11:01:53.371Z,16.90
2018-06-25T11:04:21.888Z,17.00
2018-06-25T11:06:52.906Z,17.10
2018-06-25T11:09:22.678Z,17.20
2018-06-25T11:14:19.559Z,17.40
2018-06-25T11:16:49.174Z,17.80
2018-06-25T11:19:17.758Z,17.90
2018-06-25T11:21:47.132Z,17.70
2018-06-25T11:24:15.790Z,17.80
2018-06-25T11:26:44.604Z,17.60
2018-06-25T11:29:16.730Z,17.70
2018-06-25T11:31:45.926Z,17.90
2018-06-25T11:34:14.641Z,17.90
2018-06-25T11:36:44.140Z,18.10
2018-06-25T11:39:14.981Z,17.90
2018-06-25T11:41:44.025Z,17.70
2018-06-25T11:44:12.888Z,17.50
2018-06-25T11:49:10.264Z,17.70
2018-06-25T11:54:08.392Z,18.40
2018-06-25T11:56:38.423Z,18.60
2018-06-25T11:59:08.301Z,18.70
2018-06-25T12:01:37.741Z,18.30
2018-06-25T12:04:07.637Z,18.10
2018-06-25T12:06:40.309Z,18.20
2018-06-25T12:09:17.724Z,18.20
2018-06-25T12:11:47.055Z,18.20
2018-06-25T12:14:16.807Z,18.60
2018-06-25T12:16:48.856Z,18.90
2018-06-25T12:24:35.039Z,18.40
2018-06-25T12:27:07.173Z,18.20
2018-06-25T12:29:36.531Z,18.40
2018-06-25T12:32:06.823Z,18.20
2018-06-25T12:34:35.531Z,18.40
2018-06-25T12:37:04.270Z,18.60
2018-06-25T12:39:32.867Z,19.00
2018-06-25T12:42:01.985Z,19.20
2018-06-25T12:44:30.940Z,19.30
2018-06-25T12:46:59.580Z,19.10
2018-06-25T12:49:29.568Z,19.20
2018-06-25T12:51:58.451Z,19.30
2018-06-25T12:54:28.051Z,19.50
2018-06-25T12:56:57.024Z,19.40
2018-06-25T12:59:25.830Z,19.60
2018-06-25T13:04:48.889Z,19.90
2018-06-25T13:09:45.911Z,20.00
2018-06-25T13:12:14.582Z,19.90
2018-06-25T13:14:43.192Z,19.90
2018-06-25T13:17:12.341Z,19.80
2018-06-25T13:19:40.727Z,19.50
2018-06-25T13:22:09.693Z,19.60
2018-06-25T13:24:38.393Z,19.40
2018-06-25T13:27:07.194Z,19.90
2018-06-25T13:29:35.646Z,20.20
2018-06-25T13:32:04.483Z,19.80
2018-06-25T13:34:33.886Z,20.00
2018-06-25T13:37:02.685Z,20.10
2018-06-25T13:39:31.897Z,20.10
2018-06-25T13:42:06.530Z,20.00
2018-06-25T13:51:17.088Z,19.80
2018-06-25T13:54:00.971Z,19.90
2018-06-25T13:56:30.088Z,20.20
2018-06-25T13:59:25.329Z,20.00
2018-06-25T14:01:54.510Z,19.80
2018-06-25T14:08:22.369Z,20.10
2018-06-25T14:10:50.998Z,19.90
2018-06-25T14:14:36.114Z,20.10
2018-06-25T14:28:30.453Z,20.20
2018-06-25T14:34:24.255Z,20.60
2018-06-25T14:38:05.538Z,20.30
2018-06-25T14:52:41.590Z,20.80
2018-06-25T15:23:39.135Z,20.70
2018-06-25T16:22:04.528Z,21.20
2018-06-25T16:28:05.433Z,21.10
2018-06-25T16:33:04.715Z,21.20
2018-06-25T16:48:03.438Z,21.10
2018-06-25T17:07:39.171Z,20.80
2018-06-25T17:10:14.879Z,20.90
2018-06-25T17:22:56.358Z,21.00
2018-06-25T17:38:02.911Z,20.90
